Time;durP1;ratioP1;P1;durP2;ratioP2;P2;SDS_P1;SDS_P2;PMS_P1;PMS_P2;Temp;Humidity;BMP_temperature;BMP_pressure;BME280_temperature;BME280_humidity;BME280_pressure;Samples;Min_cycle;Max_cycle;Signal;HPM_P1;HPM_P2
2022/05/08 00:01:40;;;;;;;15.43;9.75;;;;;;;15.10;77.08;101902.97;5105257;27;20109;-70
2022/05/08 00:04:06;;;;;;;14.82;9.40;;;;;;;15.17;77.28;101901.72;5090130;28;20072;-70
2022/05/08 00:06:34;;;;;;;16.10;9.80;;;;;;;14.92;78.50;101914.50;5102382;27;20051;-71
2022/05/08 00:09:00;;;;;;;13.30;9.32;;;;;;;15.09;77.29;101909.19;5105664;27;20132;-70
2022/05/08 00:11:27;;;;;;;13.85;9.00;;;;;;;14.89;78.02;101896.16;5109335;27;20055;-70
2022/05/08 00:13:54;;;;;;;13.43;9.13;;;;;;;15.10;77.37;101895.91;5109488;28;20077;-70
2022/05/08 00:16:20;;;;;;;14.20;8.25;;;;;;;14.99;77.25;101906.16;5109717;27;20085;-71
2022/05/08 00:18:46;;;;;;;12.30;8.32;;;;;;;15.17;75.99;101898.22;5108721;28;20108;-70
2022/05/08 00:21:13;;;;;;;12.07;8.07;;;;;;;14.99;76.62;101894.75;5109482;27;20081;-70
2022/05/08 00:23:41;;;;;;;12.00;8.38;;;;;;;14.91;76.95;101907.50;5115250;27;20109;-70
2022/05/08 00:26:08;;;;;;;14.93;8.25;;;;;;;14.76;77.34;101914.41;5120421;27;20039;-71
2022/05/08 00:28:35;;;;;;;11.55;7.95;;;;;;;14.73;77.72;101918.97;5110670;27;20450;-70
2022/05/08 00:31:01;;;;;;;12.38;8.35;;;;;;;14.66;77.72;101909.66;5105835;27;20045;-70
2022/05/08 00:33:27;;;;;;;17.20;8.35;;;;;;;14.56;78.34;101919.81;5109558;27;20051;-70
2022/05/08 00:35:54;;;;;;;18.85;8.48;;;;;;;14.86;77.34;101907.72;5108176;27;20648;-70
2022/05/08 00:38:20;;;;;;;11.80;9.07;;;;;;;14.76;77.98;101905.63;5107524;27;20048;-70
2022/05/08 00:40:48;;;;;;;15.70;8.50;;;;;;;14.96;77.42;101908.13;5107943;27;20056;-70
2022/05/08 00:43:28;;;;;;;16.52;8.52;;;;;;;15.19;76.33;101907.75;5108798;28;20044;-70
2022/05/08 00:45:55;;;;;;;15.30;9.00;;;;;;;15.04;76.64;101905.91;5105917;28;20411;-70
2022/05/08 00:48:22;;;;;;;12.30;8.38;;;;;;;14.69;78.50;101913.00;5110613;27;20040;-70
2022/05/08 00:50:49;;;;;;;16.13;8.18;;;;;;;15.24;76.36;101918.09;5107716;27;20075;-70
2022/05/08 00:53:15;;;;;;;13.88;8.07;;;;;;;15.25;76.37;101915.38;5108290;27;20445;-70
2022/05/08 00:55:42;;;;;;;15.35;8.85;;;;;;;15.39;75.66;101918.16;5112934;27;20051;-70
2022/05/08 00:58:11;;;;;;;11.23;7.75;;;;;;;15.29;75.83;101916.06;5109968;27;20440;-69
2022/05/08 01:00:37;;;;;;;15.18;8.65;;;;;;;15.02;76.93;101913.94;5107326;28;20495;-70
2022/05/08 01:03:04;;;;;;;12.30;7.93;;;;;;;14.72;78.23;101918.13;5122563;27;20135;-70
2022/05/08 01:05:31;;;;;;;13.50;8.38;;;;;;;14.91;77.88;101925.97;5109111;27;20452;-69
2022/05/08 01:07:57;;;;;;;12.55;8.80;;;;;;;15.00;76.86;101928.16;5102490;27;20124;-70
2022/05/08 01:10:23;;;;;;;11.85;8.68;;;;;;;14.71;78.64;101921.69;5107279;27;20066;-70
2022/05/08 01:12:50;;;;;;;14.25;8.98;;;;;;;14.91;77.53;101923.34;5107524;28;20104;-70
2022/05/08 01:15:20;;;;;;;13.20;8.48;;;;;;;14.80;77.65;101923.03;5107851;28;20061;-70
2022/05/08 01:17:48;;;;;;;11.85;7.90;;;;;;;14.78;76.75;101923.09;5110470;27;20063;-70
2022/05/08 01:20:16;;;;;;;12.82;8.05;;;;;;;14.72;76.25;101931.31;5118458;27;20050;-70
2022/05/08 01:22:44;;;;;;;15.70;7.57;;;;;;;14.85;75.52;101924.50;5107557;27;20112;-70
2022/05/08 01:25:10;;;;;;;15.82;7.63;;;;;;;14.80;75.17;101925.66;5110966;27;20043;-70
2022/05/08 01:27:37;;;;;;;11.80;7.32;;;;;;;14.65;75.35;101929.06;5110007;27;20104;-70
2022/05/08 01:30:05;;;;;;;11.57;7.30;;;;;;;14.41;76.18;101929.34;5106893;28;20048;-69
2022/05/08 01:32:32;;;;;;;14.05;7.85;;;;;;;14.55;76.40;101932.19;5113616;27;20051;-70
2022/05/08 01:34:58;;;;;;;12.32;7.75;;;;;;;14.33;77.34;101936.75;5106054;28;20051;-69
2022/05/08 01:37:24;;;;;;;11.05;7.78;;;;;;;14.69;76.26;101935.91;5112958;27;20155;-69
2022/05/08 01:39:52;;;;;;;11.57;7.63;;;;;;;14.74;75.87;101939.19;5107474;27;20407;-70
2022/05/08 01:42:18;;;;;;;14.25;7.25;;;;;;;14.57;75.58;101929.44;5117518;27;20076;-70
2022/05/08 01:44:45;;;;;;;10.05;7.05;;;;;;;14.48;76.17;101940.47;5124162;27;20067;-70
2022/05/08 01:49:54;;;;;;;9.68;6.47;;;;;;;14.36;75.73;101935.78;5107484;28;20054;-69
2022/05/08 01:52:21;;;;;;;13.13;7.07;;;;;;;14.56;75.38;101943.56;5113947;27;20112;-69
2022/05/08 01:54:47;;;;;;;15.95;7.30;;;;;;;14.45;75.64;101938.81;5105562;27;20294;-70
2022/05/08 01:57:15;;;;;;;13.13;7.03;;;;;;;14.38;75.09;101942.69;5095568;27;20121;-70
2022/05/08 01:59:41;;;;;;;12.73;7.05;;;;;;;14.41;74.78;101937.25;5104920;28;20101;-70
2022/05/08 02:02:08;;;;;;;9.70;6.43;;;;;;;14.39;75.01;101944.41;5109597;28;20092;-70
2022/05/08 02:04:34;;;;;;;10.02;6.28;;;;;;;14.38;74.45;101945.31;5108669;28;20457;-70
2022/05/08 02:07:01;;;;;;;15.45;6.07;;;;;;;14.21;74.79;101947.91;5106172;28;20181;-70
2022/05/08 02:09:27;;;;;;;12.38;6.80;;;;;;;14.02;75.25;101957.59;5107991;28;20468;-70
2022/05/08 02:11:53;;;;;;;12.18;6.38;;;;;;;14.19;75.62;101944.44;5112387;27;20047;-70
2022/05/08 02:14:21;;;;;;;14.32;7.25;;;;;;;14.35;74.91;101950.75;5096141;28;20069;-70
2022/05/08 02:16:48;;;;;;;9.25;6.03;;;;;;;14.35;74.59;101955.16;5107999;27;20483;-70
2022/05/08 02:19:15;;;;;;;9.52;5.75;;;;;;;13.94;75.43;101951.81;5107810;27;20051;-69
2022/05/08 02:21:41;;;;;;;8.38;6.05;;;;;;;13.84;75.62;101959.31;5108325;28;20078;-69
2022/05/08 02:24:08;;;;;;;13.02;6.20;;;;;;;13.79;75.61;101953.38;5109318;27;20434;-70
2022/05/08 02:26:34;;;;;;;11.00;5.65;;;;;;;14.09;74.65;101957.22;5108303;27;20067;-70
2022/05/08 02:29:01;;;;;;;9.68;5.90;;;;;;;13.94;74.34;101951.81;5108006;28;20099;-69
2022/05/08 02:31:28;;;;;;;7.55;4.90;;;;;;;13.87;73.86;101956.53;5108660;28;20116;-70
2022/05/08 02:33:55;;;;;;;10.43;5.20;;;;;;;14.18;73.22;101958.59;5108627;28;20067;-69
2022/05/08 02:36:21;;;;;;;9.43;5.45;;;;;;;13.96;73.93;101960.53;5108166;28;20555;-69
2022/05/08 02:38:47;;;;;;;7.75;4.72;;;;;;;13.83;74.48;101962.84;5108054;28;20120;-69
2022/05/08 02:41:13;;;;;;;10.68;5.10;;;;;;;13.78;74.89;101961.38;5108992;27;20075;-69
2022/05/08 02:43:40;;;;;;;7.70;4.80;;;;;;;13.71;74.01;101970.50;5108808;28;20491;-69
2022/05/08 02:46:06;;;;;;;10.80;4.90;;;;;;;13.53;75.26;101972.13;5110105;27;20043;-69
2022/05/08 02:48:34;;;;;;;8.55;4.75;;;;;;;13.46;75.30;101968.94;5112404;27;20472;-69
2022/05/08 02:51:00;;;;;;;12.00;5.35;;;;;;;13.55;75.22;101973.81;5111208;28;20413;-69
2022/05/08 02:53:27;;;;;;;11.23;5.75;;;;;;;13.49;75.24;101974.06;5110129;27;20044;-69
2022/05/08 02:58:45;;;;;;;7.20;5.00;;;;;;;13.82;73.93;101976.97;5084236;27;20047;-69
2022/05/08 03:01:12;;;;;;;9.18;5.40;;;;;;;13.97;73.36;101980.66;5123459;27;20122;-69
2022/05/08 03:03:40;;;;;;;13.48;5.13;;;;;;;13.67;74.38;101976.81;5112774;28;20423;-69
2022/05/08 03:06:07;;;;;;;9.80;5.07;;;;;;;13.63;74.30;101979.56;5103122;27;20136;-69
2022/05/08 03:08:33;;;;;;;13.38;5.13;;;;;;;13.52;74.71;101987.13;5109397;28;20116;-69
2022/05/08 03:13:44;;;;;;;9.43;5.25;;;;;;;13.36;75.30;101996.59;5091405;28;20066;-69
2022/05/08 03:16:12;;;;;;;12.60;5.00;;;;;;;13.57;74.78;101990.38;5112170;27;20066;-69
2022/05/08 03:18:40;;;;;;;11.20;4.88;;;;;;;13.32;75.29;101992.41;5110440;27;20071;-69
2022/05/08 03:21:07;;;;;;;13.25;5.13;;;;;;;13.56;75.06;101995.75;5106729;27;20538;-69
2022/05/08 03:23:34;;;;;;;10.52;5.20;;;;;;;13.66;73.77;101999.69;5104770;27;20071;-69
2022/05/08 03:26:00;;;;;;;10.20;5.07;;;;;;;13.52;74.24;102002.06;5111879;27;20047;-69
2022/05/08 03:28:27;;;;;;;9.10;5.20;;;;;;;13.37;74.13;102005.38;5111562;27;20093;-69
2022/05/08 03:30:53;;;;;;;8.52;4.80;;;;;;;13.41;74.56;102002.53;5111008;27;20069;-69
2022/05/08 03:33:19;;;;;;;9.20;4.40;;;;;;;13.16;75.09;102013.25;5111250;27;20122;-69
2022/05/08 03:35:47;;;;;;;11.27;5.00;;;;;;;13.20;74.61;102013.97;5110629;27;20109;-69
2022/05/08 03:38:13;;;;;;;10.80;4.95;;;;;;;13.05;74.42;102006.69;5105954;28;20044;-69
2022/05/08 03:40:40;;;;;;;9.05;4.45;;;;;;;12.84;74.97;102008.44;5110673;27;20148;-69
2022/05/08 03:43:07;;;;;;;10.60;4.40;;;;;;;12.91;73.84;102006.41;5111473;27;20096;-69
2022/05/08 03:45:33;;;;;;;12.93;4.00;;;;;;;12.77;74.21;102011.38;5091416;28;20476;-69
2022/05/08 03:48:00;;;;;;;14.80;4.50;;;;;;;12.68;74.34;102004.72;5099933;27;20097;-69
2022/05/08 03:50:27;;;;;;;12.88;4.00;;;;;;;12.78;73.40;102016.59;5110588;27;20039;-69
2022/05/08 03:52:54;;;;;;;13.90;3.97;;;;;;;12.67;73.57;102014.38;5111493;27;20058;-69
2022/05/08 03:55:21;;;;;;;12.55;4.25;;;;;;;12.99;72.62;102025.38;5111051;27;20044;-70
2022/05/08 03:57:47;;;;;;;12.10;4.80;;;;;;;12.90;72.65;102028.38;5105909;27;20122;-70
2022/05/08 04:00:15;;;;;;;12.82;3.90;;;;;;;12.74;73.06;102020.28;5120726;27;20122;-70
2022/05/08 04:02:41;;;;;;;13.38;3.78;;;;;;;12.47;73.42;102024.84;5116133;27;20043;-69
2022/05/08 04:05:09;;;;;;;11.40;4.22;;;;;;;12.28;73.35;102023.84;5106770;27;20044;-69
2022/05/08 04:07:37;;;;;;;11.40;4.00;;;;;;;12.11;73.98;102028.91;5112109;27;20497;-69
2022/05/08 04:10:06;;;;;;;14.50;3.95;;;;;;;12.54;72.69;102025.47;5108684;28;20045;-69
2022/05/08 04:12:32;;;;;;;7.50;3.88;;;;;;;12.72;71.79;102034.38;5104775;28;20105;-69
2022/05/08 04:14:59;;;;;;;10.70;3.88;;;;;;;12.83;70.98;102026.91;5110957;27;20047;-69
2022/05/08 04:17:26;;;;;;;12.73;3.83;;;;;;;12.44;71.83;102027.59;5111073;27;20044;-69
2022/05/08 04:19:53;;;;;;;16.30;4.55;;;;;;;12.37;72.28;102033.16;5109451;27;20130;-69
2022/05/08 04:25:03;;;;;;;10.63;3.45;;;;;;;12.34;71.35;102030.66;5104565;28;20180;-69
2022/05/08 04:27:30;;;;;;;9.57;3.85;;;;;;;12.44;70.56;102037.28;5111017;28;20044;-69
2022/05/08 04:29:57;;;;;;;17.90;3.55;;;;;;;12.32;70.40;102041.22;5102168;28;20072;-69
2022/05/08 04:32:23;;;;;;;14.45;3.40;;;;;;;12.49;70.80;102046.69;5118879;27;20066;-69
2022/05/08 04:34:49;;;;;;;11.40;2.88;;;;;;;12.61;69.76;102043.56;5113933;27;20048;-69
2022/05/08 04:37:16;;;;;;;17.10;4.55;;;;;;;12.56;69.92;102047.31;5110079;27;20492;-69
2022/05/08 04:39:42;;;;;;;11.57;3.22;;;;;;;12.61;69.75;102048.84;5109994;27;20043;-69
2022/05/08 04:42:09;;;;;;;15.77;3.88;;;;;;;12.38;69.91;102048.88;5110341;27;20044;-69
2022/05/08 04:44:37;;;;;;;7.90;3.13;;;;;;;12.53;69.86;102052.69;5110683;28;20052;-69
2022/05/08 04:47:04;;;;;;;15.02;4.18;;;;;;;12.48;70.60;102055.50;5101116;27;20093;-69
2022/05/08 04:49:30;;;;;;;12.48;3.95;;;;;;;12.53;70.07;102057.94;5113287;27;20100;-69
2022/05/08 04:51:56;;;;;;;13.05;3.88;;;;;;;12.78;69.71;102055.22;5110138;27;20051;-69
2022/05/08 04:54:24;;;;;;;16.85;4.10;;;;;;;12.67;70.21;102056.47;5110587;28;20067;-69
2022/05/08 04:56:51;;;;;;;13.05;3.97;;;;;;;12.61;69.42;102063.75;5109747;27;20047;-69
2022/05/08 04:59:18;;;;;;;12.23;3.75;;;;;;;12.69;68.46;102070.44;5109403;27;20095;-69
2022/05/08 05:01:45;;;;;;;16.70;3.67;;;;;;;12.94;68.41;102072.09;5101322;27;20509;-69
2022/05/08 05:04:12;;;;;;;11.35;3.53;;;;;;;12.90;68.52;102059.97;5104128;28;20075;-69
2022/05/08 05:06:38;;;;;;;10.05;3.30;;;;;;;12.61;67.84;102064.63;5106208;27;20093;-69
2022/05/08 05:09:04;;;;;;;12.85;4.30;;;;;;;12.46;68.33;102065.22;5105319;28;20063;-69
2022/05/08 05:11:31;;;;;;;14.25;3.65;;;;;;;12.57;68.37;102070.06;5104173;28;20060;-69
2022/05/08 05:13:57;;;;;;;12.98;3.28;;;;;;;12.18;68.42;102067.19;5109379;27;20097;-69
2022/05/08 05:16:23;;;;;;;9.82;3.15;;;;;;;12.29;68.35;102075.53;5109222;27;20152;-69
2022/05/08 05:18:51;;;;;;;9.40;4.00;;;;;;;12.55;68.34;102078.03;5108091;28;20136;-69
2022/05/08 05:21:17;;;;;;;13.73;3.95;;;;;;;12.71;66.99;102074.81;5094886;28;20121;-69
2022/05/08 05:23:44;;;;;;;14.80;3.72;;;;;;;12.75;66.71;102089.56;5095186;28;20673;-69
2022/05/08 05:26:10;;;;;;;18.60;3.63;;;;;;;12.62;67.39;102091.81;5108631;28;20044;-69
2022/05/08 05:28:36;;;;;;;13.85;3.72;;;;;;;12.65;66.34;102089.03;5108106;27;20044;-69
2022/05/08 05:31:03;;;;;;;14.13;3.75;;;;;;;12.92;66.04;102095.00;5103289;28;20226;-69
2022/05/08 05:33:29;;;;;;;11.95;3.63;;;;;;;12.79;65.92;102094.63;5105866;28;20047;-69
2022/05/08 05:35:57;;;;;;;13.05;3.50;;;;;;;12.39;66.29;102097.06;5098969;27;20089;-69
2022/05/08 05:38:23;;;;;;;16.42;4.50;;;;;;;12.74;66.91;102093.09;5104080;28;20116;-69
2022/05/08 05:40:49;;;;;;;17.08;4.43;;;;;;;12.94;66.22;102103.69;5106411;27;20047;-69
2022/05/08 05:43:16;;;;;;;13.35;3.60;;;;;;;13.00;65.06;102100.81;5109566;27;20120;-69
2022/05/08 05:45:42;;;;;;;13.88;3.65;;;;;;;12.96;64.59;102108.00;5105447;28;20487;-70
2022/05/08 05:48:08;;;;;;;15.07;3.55;;;;;;;12.94;64.63;102111.59;5092468;28;20412;-70
2022/05/08 05:50:35;;;;;;;18.02;4.13;;;;;;;13.30;64.81;102110.16;5107812;28;20437;-69
2022/05/08 05:53:02;;;;;;;15.95;4.75;;;;;;;13.33;64.40;102112.66;5108529;28;20055;-69
2022/05/08 05:55:29;;;;;;;12.25;3.85;;;;;;;13.41;64.03;102118.47;5103636;27;20120;-69
2022/05/08 05:57:55;;;;;;;10.43;3.72;;;;;;;13.87;65.36;102119.13;5088701;28;20048;-69
2022/05/08 06:00:21;;;;;;;9.57;3.03;;;;;;;13.93;63.23;102116.25;5099546;28;20067;-69
2022/05/08 06:02:48;;;;;;;12.95;3.50;;;;;;;14.31;62.88;102120.66;5103429;28;20058;-69
2022/05/08 06:05:15;;;;;;;15.50;4.03;;;;;;;14.77;61.67;102114.16;5101205;28;20503;-69
2022/05/08 06:07:42;;;;;;;16.20;3.85;;;;;;;15.19;59.25;102119.13;5108693;27;20044;-69
2022/05/08 06:10:12;;;;;;;11.13;4.03;;;;;;;15.38;58.40;102124.38;5107037;27;20489;-69
2022/05/08 06:12:38;;;;;;;12.30;3.25;;;;;;;14.71;59.26;102116.22;5108630;27;20054;-69
2022/05/08 06:15:08;;;;;;;13.15;3.70;;;;;;;15.22;59.28;102129.56;5103003;28;20070;-69
2022/05/08 06:17:34;;;;;;;14.93;3.65;;;;;;;15.54;57.63;102131.50;5108260;28;20654;-69
2022/05/08 06:20:01;;;;;;;15.27;3.67;;;;;;;15.96;57.12;102131.06;5108980;27;20128;-69
2022/05/08 06:22:27;;;;;;;12.68;3.13;;;;;;;15.85;55.18;102129.94;5101979;27;20071;-70
2022/05/08 06:24:53;;;;;;;12.70;3.63;;;;;;;15.58;57.31;102132.19;5109640;27;20056;-70
2022/05/08 06:27:21;;;;;;;14.38;3.22;;;;;;;15.62;58.50;102135.53;5114631;27;20043;-70
2022/05/08 06:29:48;;;;;;;11.48;3.38;;;;;;;15.71;57.86;102137.69;5112470;27;20080;-70
2022/05/08 06:32:14;;;;;;;13.50;3.20;;;;;;;15.83;56.20;102137.94;5114276;27;20457;-70
2022/05/08 06:34:41;;;;;;;15.38;4.25;;;;;;;15.70;55.72;102134.22;5114733;27;20544;-70
2022/05/08 06:37:08;;;;;;;17.60;3.70;;;;;;;16.16;56.79;102134.47;5115464;27;20046;-70
2022/05/08 06:39:34;;;;;;;14.93;3.75;;;;;;;16.15;56.24;102143.38;5112701;27;20091;-70
2022/05/08 06:42:01;;;;;;;14.77;3.85;;;;;;;16.55;55.57;102135.81;5115310;27;20539;-70
2022/05/08 06:44:28;;;;;;;15.63;4.07;;;;;;;16.93;54.43;102135.53;5107615;27;20039;-70
2022/05/08 06:46:55;;;;;;;14.88;3.90;;;;;;;17.18;55.24;102140.34;5114681;27;20097;-70
2022/05/08 06:49:21;;;;;;;12.95;3.63;;;;;;;17.32;51.50;102146.56;5112792;27;20040;-70
2022/05/08 06:51:48;;;;;;;13.40;3.40;;;;;;;17.72;52.02;102146.91;5115631;27;20051;-70
2022/05/08 06:54:14;;;;;;;13.48;3.35;;;;;;;17.69;53.30;102139.13;5111383;27;20083;-70
2022/05/08 06:56:41;;;;;;;10.05;3.30;;;;;;;17.87;51.42;102149.50;5107430;27;20086;-70
2022/05/08 07:01:53;;;;;;;12.27;3.10;;;;;;;18.23;51.35;102149.06;5124548;27;20414;-70
2022/05/08 07:04:20;;;;;;;19.30;5.07;;;;;;;18.27;50.24;102139.09;5121451;27;20047;-70
2022/05/08 07:06:47;;;;;;;19.20;4.15;;;;;;;18.46;50.83;102137.88;5107564;27;20172;-70
2022/05/08 07:09:14;;;;;;;14.13;3.20;;;;;;;18.42;49.05;102135.50;5113370;27;20551;-70
2022/05/08 07:11:41;;;;;;;19.25;3.80;;;;;;;18.73;51.13;102130.00;5115136;27;20604;-70
2022/05/08 07:14:08;;;;;;;14.35;3.45;;;;;;;19.35;48.46;102135.69;5114638;27;20048;-70
2022/05/08 07:16:34;;;;;;;13.68;3.85;;;;;;;19.47;47.92;102136.72;5115098;27;20105;-70
2022/05/08 07:19:02;;;;;;;13.50;3.67;;;;;;;19.58;49.22;102139.50;5099555;27;20048;-70
2022/05/08 07:21:28;;;;;;;13.88;4.13;;;;;;;19.72;47.94;102137.63;5106709;27;20040;-70
2022/05/08 07:23:55;;;;;;;13.77;3.80;;;;;;;19.92;45.84;102130.91;5103490;27;20535;-71
2022/05/08 07:26:21;;;;;;;17.52;4.43;;;;;;;20.17;46.27;102148.72;5110683;27;20040;-70
2022/05/08 07:28:48;;;;;;;15.02;3.83;;;;;;;19.83;46.80;102144.88;5108527;27;20070;-70
2022/05/08 07:31:14;;;;;;;15.68;3.42;;;;;;;20.20;47.08;102141.38;5107759;27;20133;-70
2022/05/08 07:33:41;;;;;;;16.70;4.70;;;;;;;20.50;48.18;102141.06;5116752;27;20047;-70
2022/05/08 07:36:13;;;;;;;16.33;3.42;;;;;;;20.50;43.71;102141.06;5117938;27;20108;-70
2022/05/08 07:38:41;;;;;;;14.23;3.95;;;;;;;20.60;46.79;102139.44;5110444;28;20036;-70
2022/05/08 07:41:08;;;;;;;14.15;4.10;;;;;;;20.81;46.02;102140.53;5110839;27;20040;-70
2022/05/08 07:43:35;;;;;;;21.42;5.35;;;;;;;20.49;45.71;102146.50;5110793;27;20071;-70
2022/05/08 07:46:02;;;;;;;14.32;3.63;;;;;;;20.21;46.35;102145.72;5110695;27;20075;-70
2022/05/08 07:48:28;;;;;;;14.23;3.50;;;;;;;19.96;46.21;102159.03;5111233;28;20093;-70
2022/05/08 07:50:55;;;;;;;11.13;3.45;;;;;;;19.83;45.71;102155.53;5109731;28;20059;-70
2022/05/08 07:53:22;;;;;;;13.57;3.05;;;;;;;19.56;47.22;102158.22;5104473;28;20048;-70
2022/05/08 07:55:51;;;;;;;13.40;3.90;;;;;;;19.04;49.01;102152.78;5101209;28;20492;-70
2022/05/08 07:58:18;;;;;;;16.48;3.85;;;;;;;18.97;49.24;102159.44;5110888;27;20044;-70
2022/05/08 08:00:45;;;;;;;17.15;3.53;;;;;;;18.90;49.84;102164.31;5110408;27;20071;-70
2022/05/08 08:03:11;;;;;;;12.43;3.38;;;;;;;19.98;49.62;102165.13;5110972;28;20093;-70
2022/05/08 08:05:39;;;;;;;13.35;3.55;;;;;;;20.71;46.83;102155.50;5110348;28;20743;-70
2022/05/08 08:08:06;;;;;;;12.02;3.33;;;;;;;21.43;45.16;102152.94;5111041;27;20101;-70
2022/05/08 08:10:34;;;;;;;15.07;4.78;;;;;;;22.07;41.62;102160.41;5103031;27;20043;-70
2022/05/08 08:13:00;;;;;;;12.07;3.60;;;;;;;22.44;41.87;102155.72;5110600;27;20081;-70
2022/05/08 08:15:26;;;;;;;10.65;3.10;;;;;;;22.81;39.75;102150.97;5110665;28;20043;-70
2022/05/08 08:17:53;;;;;;;14.63;3.40;;;;;;;22.82;39.95;102155.34;5110460;28;20043;-70
2022/05/08 08:20:19;;;;;;;13.52;4.47;;;;;;;22.55;39.43;102162.88;5109456;27;20142;-70
2022/05/08 08:22:46;;;;;;;11.52;3.10;;;;;;;22.26;41.66;102170.53;5110147;27;20100;-70
2022/05/08 08:25:12;;;;;;;9.88;3.13;;;;;;;22.48;41.73;102165.19;5104370;28;20050;-71
2022/05/08 08:27:40;;;;;;;14.70;3.30;;;;;;;22.57;40.04;102168.97;5110842;28;20044;-71
2022/05/08 08:30:07;;;;;;;11.38;4.28;;;;;;;22.70;40.30;102167.03;5109900;27;20116;-70
2022/05/08 08:32:34;;;;;;;11.95;3.47;;;;;;;22.22;41.08;102180.59;5110107;28;20046;-70
2022/05/08 08:35:00;;;;;;;15.68;3.20;;;;;;;22.40;41.49;102172.09;5109657;27;20063;-71
2022/05/08 08:37:27;;;;;;;12.25;3.17;;;;;;;22.52;41.98;102172.00;5109981;27;20702;-70
2022/05/08 08:39:53;;;;;;;12.40;3.53;;;;;;;22.68;40.66;102171.66;5109383;27;20044;-70
2022/05/08 08:42:27;;;;;;;16.10;3.80;;;;;;;22.98;43.25;102166.53;5110229;27;20059;-70
2022/05/08 08:47:50;;;;;;;16.40;3.42;;;;;;;22.70;40.78;102170.56;5110044;28;20054;-70
2022/05/08 08:50:17;;;;;;;11.27;3.15;;;;;;;22.45;38.70;102173.47;5103687;27;20067;-70
2022/05/08 08:52:45;;;;;;;14.40;3.25;;;;;;;21.61;39.99;102173.75;5105770;27;20046;-70
2022/05/08 08:55:11;;;;;;;13.00;3.50;;;;;;;21.24;43.25;102166.78;5109056;28;20063;-70
2022/05/08 08:57:38;;;;;;;13.40;3.55;;;;;;;21.45;41.42;102169.66;5108439;27;20507;-70
2022/05/08 09:00:07;;;;;;;12.25;3.33;;;;;;;21.77;41.28;102184.09;5109160;27;20079;-74
2022/05/08 09:02:34;;;;;;;12.88;3.55;;;;;;;21.96;42.11;102181.75;5110330;27;20039;-72
2022/05/08 09:05:05;;;;;;;18.35;3.83;;;;;;;22.63;42.22;102173.81;5109522;28;20042;-71
2022/05/08 09:07:39;;;;;;;10.95;3.10;;;;;;;23.10;39.13;102178.88;5113367;27;20468;-71
2022/05/08 09:10:07;;;;;;;12.73;3.15;;;;;;;23.86;43.95;102177.91;5108635;27;20479;-71
2022/05/08 09:12:34;;;;;;;13.75;3.65;;;;;;;23.24;38.69;102178.59;5125404;27;20518;-71
2022/05/08 09:15:00;;;;;;;10.88;3.00;;;;;;;23.27;37.71;102181.03;5124997;27;20043;-72
2022/05/08 09:17:43;;;;;;;9.80;3.63;;;;;;;23.10;39.56;102178.03;5118968;27;20059;-71
2022/05/08 09:20:25;;;;;;;11.57;3.28;;;;;;;23.06;37.22;102185.44;5109190;28;20116;-71
2022/05/08 09:23:08;;;;;;;12.30;2.70;;;;;;;23.05;36.34;102178.44;5109559;28;20069;-71
2022/05/08 09:25:55;;;;;;;10.73;2.67;;;;;;;22.73;35.73;102172.97;5098038;28;20105;-71
2022/05/08 09:28:25;;;;;;;8.55;2.08;;;;;;;23.77;35.40;102173.31;5112145;27;20043;-71
2022/05/08 09:30:57;;;;;;;9.85;2.30;;;;;;;23.96;33.96;102168.09;5108025;27;20568;-71
2022/05/08 09:33:27;;;;;;;10.20;2.40;;;;;;;24.35;33.39;102179.06;5120765;27;20035;-71
2022/05/08 09:35:53;;;;;;;9.77;2.63;;;;;;;24.14;31.87;102171.88;5109242;27;20047;-72
2022/05/08 09:38:20;;;;;;;9.48;2.47;;;;;;;24.46;33.86;102179.84;5109099;27;20483;-72
2022/05/08 09:40:46;;;;;;;12.60;2.40;;;;;;;24.76;33.72;102173.56;5109441;27;20047;-72
2022/05/08 09:43:28;;;;;;;11.48;2.42;;;;;;;24.44;31.65;102172.88;5125071;27;20077;-72
2022/05/08 09:45:58;;;;;;;;;;;;;;;23.97;25.89;102175.16;5109764;28;20559;-72
2022/05/08 09:48:28;;;;;;;10.57;2.70;;;;;;;24.20;31.59;102182.06;5109212;28;19951;-72
2022/05/08 09:50:56;;;;;;;8.00;2.72;;;;;;;24.52;28.77;102173.91;5110565;27;20043;-72
2022/05/08 09:53:24;;;;;;;9.40;2.13;;;;;;;24.51;26.03;102164.16;5109294;27;20575;-72
2022/05/08 09:55:52;;;;;;;6.65;2.30;;;;;;;23.97;24.79;102169.78;5108280;28;20551;-72
2022/05/08 09:58:18;;;;;;;8.07;2.55;;;;;;;23.95;30.04;102166.38;5109525;28;20487;-71
2022/05/08 10:00:46;;;;;;;8.07;2.00;;;;;;;23.97;24.25;102164.44;5108145;27;20109;-72
2022/05/08 10:03:12;;;;;;;7.75;2.20;;;;;;;23.97;31.77;102167.09;5109387;28;20066;-72
2022/05/08 10:05:41;;;;;;;8.15;2.15;;;;;;;24.43;35.19;102174.72;5108949;28;20100;-71
2022/05/08 10:08:09;;;;;;;6.13;2.00;;;;;;;24.69;28.05;102164.38;5109214;27;20055;-69
2022/05/08 10:13:58;;;;;;;4.55;1.80;;;;;;;24.87;26.07;102160.06;5108488;27;20584;-71
2022/05/08 10:16:49;;;;;;;6.20;1.92;;;;;;;25.08;29.09;102157.31;5108888;28;20519;-71
2022/05/08 10:19:43;;;;;;;6.97;1.95;;;;;;;25.48;25.59;102159.88;5105004;28;20063;-71
2022/05/08 10:22:13;;;;;;;8.73;2.40;;;;;;;25.68;29.36;102164.31;5100037;28;20044;-71
2022/05/08 10:24:41;;;;;;;8.80;2.15;;;;;;;25.73;26.68;102167.38;5109016;28;20044;-71
2022/05/08 10:27:14;;;;;;;12.27;2.67;;;;;;;25.11;28.71;102157.03;5108269;28;20500;-72
2022/05/08 10:29:42;;;;;;;5.97;1.92;;;;;;;25.36;26.49;102166.38;5108473;28;20484;-71
2022/05/08 10:32:10;;;;;;;8.88;2.05;;;;;;;25.61;25.64;102157.78;5108869;28;20047;-70
2022/05/08 10:34:39;;;;;;;9.90;2.60;;;;;;;25.58;27.52;102158.91;5108537;27;20407;-71
2022/05/08 10:37:28;;;;;;;7.35;2.10;;;;;;;25.79;28.19;102164.16;5108591;28;20138;-71
2022/05/08 10:39:55;;;;;;;8.70;2.08;;;;;;;25.91;30.20;102162.97;5101008;28;20044;-71
2022/05/08 10:42:42;;;;;;;6.80;2.00;;;;;;;26.03;29.90;102164.50;5103054;28;20121;-71
2022/05/08 10:45:37;;;;;;;6.32;2.28;;;;;;;26.28;28.64;102170.25;5088539;28;20492;-74
2022/05/08 10:48:09;;;;;;;7.22;2.05;;;;;;;26.12;30.55;102169.03;5094246;28;20688;-69
2022/05/08 10:50:36;;;;;;;11.60;2.35;;;;;;;25.34;28.47;102163.84;5123273;27;20520;-75
2022/05/08 10:53:04;;;;;;;8.18;2.10;;;;;;;25.47;29.73;102159.03;5122384;27;20039;-75
2022/05/08 10:55:31;;;;;;;7.07;2.03;;;;;;;25.06;32.27;102165.50;5108559;28;20105;-73
2022/05/08 10:57:57;;;;;;;10.40;2.08;;;;;;;25.59;29.59;102159.78;5108407;28;20043;-77
2022/05/08 11:00:25;;;;;;;7.95;2.08;;;;;;;25.57;30.60;102164.44;5106938;27;20063;-76
2022/05/08 11:02:54;;;;;;;9.48;2.22;;;;;;;26.06;29.35;102156.16;5107475;28;20096;-77
2022/05/08 11:05:22;;;;;;;12.57;2.65;;;;;;;26.22;30.81;102152.03;5108181;28;20093;-76
2022/05/08 11:07:51;;;;;;;10.00;2.20;;;;;;;25.87;32.43;102145.44;5110944;27;20043;-76
2022/05/08 11:10:23;;;;;;;8.70;2.20;;;;;;;26.33;31.61;102154.53;5115292;27;20051;-77
2022/05/08 11:12:56;;;;;;;6.82;1.83;;;;;;;26.10;29.10;102151.31;5091826;28;20640;-77
2022/05/08 11:15:23;;;;;;;9.57;2.30;;;;;;;26.17;29.52;102147.91;5094036;28;20040;-76
2022/05/08 11:18:03;;;;;;;9.30;2.35;;;;;;;25.55;29.30;102155.66;5111983;28;20407;-75
2022/05/08 11:20:30;;;;;;;6.97;1.88;;;;;;;25.43;29.54;102144.19;5125215;27;20111;-76
2022/05/08 11:22:57;;;;;;;9.30;2.20;;;;;;;25.46;31.08;102140.38;5111385;27;20077;-76
2022/05/08 11:25:24;;;;;;;10.57;2.38;;;;;;;25.73;31.50;102147.72;5111663;27;20044;-76
2022/05/08 11:27:52;;;;;;;7.60;2.05;;;;;;;25.60;32.29;102148.03;5112399;27;20040;-76
2022/05/08 11:30:27;;;;;;;8.27;2.35;;;;;;;26.20;31.84;102151.34;5111188;27;20070;-76
2022/05/08 11:36:05;;;;;;;7.57;2.03;;;;;;;25.70;32.73;102148.88;5074243;28;20055;-77
2022/05/08 11:38:33;;;;;;;9.15;2.10;;;;;;;25.82;30.63;102158.47;5109147;27;20488;-77
2022/05/08 11:41:02;;;;;;;8.82;2.10;;;;;;;26.10;31.39;102149.50;5113831;27;20063;-70
2022/05/08 11:43:42;;;;;;;11.80;2.13;;;;;;;25.96;29.00;102139.22;5111806;27;20143;-73
2022/05/08 11:46:15;;;;;;;9.65;2.33;;;;;;;25.92;31.25;102148.56;5111303;27;20044;-76